Latest Weather Observations for Wudinna Airport

IDS60801

Issued at 2:01 pm CST Wednesday 26 July 2017 (issued every 30 minutes, with the page automatically refreshed every 10 minutes)

About weather observations | Map of weather stations | Latest weather observations for SA | Other Formats
Station Details ID: 018083 Name: WUDINNA AERO Lat: -33.04 Lon: 135.45 Height: 86.4 m
Data from the previous 72 hours. | See also: Recent months at Wudinna Airport
Date/Time
CST
Temp
°C
App
Temp
°C
Dew
Point
°C
Rel
Hum
%
Delta-T
°C
Wind Press
QNH
hPa
Press
MSL
hPa
Rain since
9am
mm
Dir  Spd
km/h
Gust
km/h
Spd
kts
Gust
kts
26/02:00pm 18.1 16.5 7.8 51 5.2 N 6 9 3 5 1023.1 1023.2 0.2
26/01:30pm 17.5 15.9 8.6 56 4.6 NE 7 11 4 6 1023.6 1023.7 0.2
26/01:00pm 16.9 15.4 8.3 57 4.4 SSW 6 9 3 5 1024.1 1024.2 0.2
26/12:30pm 16.6 15.0 8.6 59 4.1 ENE 7 13 4 7 1024.3 1024.4 0.0
26/12:00pm 15.4 13.3 8.4 63 3.5 S 9 13 5 7 1024.9 1025.0 0.0
26/11:30am 15.1 13.7 9.5 69 2.9 SE 7 11 4 6 1025.3 1025.4 0.0
26/11:00am 15.1 15.3 10.5 74 2.4 CALM 0 6 0 3 1026.0 1026.1 0.0
26/10:30am 14.6 13.8 11.0 79 1.9 NW 6 9 3 5 1025.9 1026.0 0.0
26/10:00am 13.1 12.6 10.6 85 1.3 W 4 7 2 4 1025.8 1025.9 0.0
26/09:30am 12.0 10.4 10.2 89 0.9 NW 9 11 5 6 1025.7 1025.8 0.0
26/09:00am 10.6 10.5 9.4 92 0.6 CALM 0 2 0 1 1025.4 1025.5 1.8
26/08:30am 8.4 7.1 7.6 95 0.4 NE 4 7 2 4 1025.0 1025.1 1.8
26/08:00am 6.1 5.1 5.4 95 0.3 CALM 0 0 0 0 1024.7 1024.8 1.8
26/07:30am 5.6 3.1 4.7 94 0.4 NE 7 9 4 5 1024.4 1024.5 1.8
26/07:00am 6.2 3.8 5.3 94 0.4 NNW 7 7 4 4 1024.2 1024.3 1.8
26/06:30am 6.9 5.2 6.0 94 0.4 N 4 7 2 4 1024.1 1024.2 1.8
26/06:00am 8.4 6.5 7.5 94 0.4 N 7 9 4 5 1023.8 1023.9 1.8
26/05:30am 7.9 6.8 6.8 93 0.5 NW 2 6 1 3 1023.6 1023.7 1.8
26/05:00am 8.3 7.3 7.4 94 0.4 NNW 2 6 1 3 1023.6 1023.7 1.8
26/04:30am 8.0 7.0 7.2 95 0.4 N 2 9 1 5 1023.4 1023.5 1.8
26/04:00am 6.7 4.6 5.7 93 0.4 NNW 6 7 3 4 1023.5 1023.6 1.8
26/03:30am 8.1 6.3 7.0 93 0.5 N 6 7 3 4 1023.3 1023.4 1.8
26/03:00am 8.9 7.1 7.8 93 0.5 N 7 9 4 5 1023.2 1023.3 1.8
26/02:30am 8.7 5.7 7.8 94 0.4 NW 13 17 7 9 1023.8 1023.9 1.8
26/02:00am 8.0 4.8 6.9 93 0.5 NW 13 17 7 9 1023.6 1023.7 1.8
26/01:30am 8.1 4.5 6.7 91 0.6 WNW 15 19 8 10 1023.4 1023.5 1.8
26/01:00am 9.5 5.5 8.4 93 0.5 WNW 19 20 10 11 1023.7 1023.8 1.8
26/12:30am 8.0 4.4 6.9 93 0.5 NW 15 17 8 9 1023.5 1023.6 1.8
26/12:00am 7.8 4.6 6.7 93 0.5 NW 13 15 7 8 1023.5 1023.6 1.8
 
Date/Time
CST
Temp
°C
App
Temp
°C
Dew
Point
°C
Rel
Hum
%
Delta-T
°C
Wind Press
QNH
hPa
Press
MSL
hPa
Rain since
9am
mm
Dir  Spd
km/h
Gust
km/h
Spd
kts
Gust
kts
25/11:30pm 7.6 4.7 6.4 92 0.5 NW 11 13 6 7 1023.4 1023.5 1.8
25/11:00pm 8.1 4.9 6.9 92 0.6 NW 13 17 7 9 1023.4 1023.5 1.8
25/10:30pm 8.6 5.1 7.2 91 0.7 NW 15 17 8 9 1023.4 1023.5 1.8
25/10:00pm 9.0 5.3 7.8 92 0.6 NW 17 19 9 10 1023.3 1023.4 1.8
25/09:30pm 8.9 5.6 8.0 94 0.4 NW 15 17 8 9 1023.3 1023.4 1.8
25/09:00pm 7.8 4.2 6.6 92 0.6 NW 15 17 8 9 1023.1 1023.2 1.8
25/08:30pm 8.8 6.2 7.7 93 0.5 NW 11 13 6 7 1022.9 1023.0 1.8
25/08:00pm 8.5 4.9 6.8 89 0.8 NW 15 15 8 8 1022.4 1022.5 1.8
25/07:30pm 9.2 6.2 7.5 89 0.8 WNW 13 15 7 8 1022.2 1022.2 1.8
25/07:00pm 11.3 8.5 8.5 83 1.4 W 13 15 7 8 1021.9 1021.9 1.8
25/06:30pm 12.7 9.3 9.2 79 1.8 WSW 17 20 9 11 1021.5 1021.5 1.8
25/06:00pm 13.3 9.5 9.0 75 2.2 WSW 19 22 10 12 1021.1 1021.1 1.8
25/05:30pm 14.1 10.3 8.9 71 2.6 WSW 19 20 10 11 1020.7 1020.7 1.8
25/05:00pm 15.6 13.0 10.8 73 2.6 WSW 15 20 8 11 1020.3 1020.3 1.8
25/04:30pm 15.8 13.5 10.6 71 2.8 W 13 15 7 8 1019.9 1019.9 1.8
25/04:00pm 15.3 13.5 10.7 74 2.4 WNW 11 15 6 8 1019.6 1019.6 1.8
25/03:30pm 14.8 12.9 11.8 82 1.6 W 13 17 7 9 1019.6 1019.6 1.8
25/03:00pm 13.6 10.4 9.8 78 2.0 WNW 17 20 9 11 1019.7 1019.7 1.8
25/02:30pm 14.1 11.0 10.3 78 2.0 W 17 20 9 11 1019.5 1019.5 1.0
25/02:00pm 15.8 12.4 9.2 65 3.4 W 17 22 9 12 1019.3 1019.3 0.8
25/01:30pm 16.2 12.3 8.7 61 3.8 W 19 26 10 14 1019.8 1019.8 0.8
25/01:00pm 15.6 12.0 9.7 68 3.1 NW 19 22 10 12 1020.2 1020.2 0.8
25/12:30pm 15.0 11.6 10.4 74 2.4 NW 19 22 10 12 1020.6 1020.6 0.8
25/12:00pm 13.0 10.5 9.8 81 1.6 NNW 13 24 7 13 1020.4 1020.4 0.6
25/11:30am 13.1 9.9 10.1 82 1.5 NNW 17 22 9 12 1021.3 1021.3 0.4
25/11:00am 13.1 9.5 10.5 84 1.4 NW 20 28 11 15 1022.2 1022.2 0.4
25/10:30am 14.7 10.7 8.9 68 2.9 NNW 20 30 11 16 1021.5 1021.5 0.0
25/10:00am 12.1 7.7 9.1 82 1.5 NNW 22 28 12 15 1021.3 1021.3 0.0
25/09:30am 13.3 10.6 11.7 90 0.9 NW 17 20 9 11 1021.3 1021.3 0.0
25/09:00am 12.3 11.4 10.5 89 0.9 WNW 6 9 3 5 1020.3 1020.3 0.0
25/08:30am 11.7 10.0 9.8 88 1.0 NNW 9 15 5 8 1020.1 1020.1 0.0
25/08:00am 10.1 6.8 6.6 79 1.6 NNW 13 15 7 8 1020.2 1020.2 0.0
25/07:30am 10.8 7.2 6.7 76 1.9 NNW 15 19 8 10 1020.2 1020.2 0.0
25/07:00am 10.0 5.7 5.2 72 2.2 NNW 17 20 9 11 1019.6 1019.6 0.0
25/06:30am 8.7 5.3 4.1 73 2.0 NNW 11 15 6 8 1018.8 1018.9 0.0
25/06:00am 8.8 5.8 4.2 73 2.0 N 9 11 5 6 1018.6 1018.7 0.0
25/05:30am 9.7 6.4 4.7 71 2.2 N 11 15 6 8 1018.3 1018.4 0.0
25/05:00am 9.6 6.5 3.8 67 2.5 NNW 9 11 5 6 1018.6 1018.7 0.0
25/04:30am 9.7 6.9 3.2 64 2.8 NNE 7 9 4 5 1018.1 1018.2 0.0
25/04:00am 9.3 6.0 2.6 63 2.9 NW 9 13 5 7 1018.1 1018.2 0.0
25/03:30am 9.3 6.0 2.2 61 3.0 NNW 9 13 5 7 1018.0 1018.1 0.0
25/03:00am 9.1 5.0 2.0 61 3.0 NW 13 15 7 8 1018.3 1018.4 0.0
25/02:30am 9.1 4.3 2.4 63 2.8 NW 17 20 9 11 1018.4 1018.5 0.0
25/02:00am 9.7 5.3 2.8 62 3.0 NNW 15 19 8 10 1018.0 1018.1 0.0
25/01:30am 11.6 7.9 2.6 54 3.9 NNW 11 17 6 9 1017.8 1017.9 0.0
25/01:00am 14.4 10.6 2.0 43 5.5 NNW 11 17 6 9 1017.7 1017.8 0.0
25/12:30am 15.3 10.4 2.1 41 5.9 NNW 17 20 9 11 1017.7 1017.8 0.0
25/12:00am 15.6 10.4 2.4 41 5.9 NNW 19 22 10 12 1017.8 1017.9 0.0
 
Date/Time
CST
Temp
°C
App
Temp
°C
Dew
Point
°C
Rel
Hum
%
Delta-T
°C
Wind Press
QNH
hPa
Press
MSL
hPa
Rain since
9am
mm
Dir  Spd
km/h
Gust
km/h
Spd
kts
Gust
kts
24/11:30pm 15.1 10.0 3.3 45 5.4 NNW 19 20 10 11 1017.9 1018.0 0.0
24/11:00pm 14.9 9.9 3.7 47 5.1 N 19 22 10 12 1018.0 1018.1 0.0
24/10:30pm 14.8 10.9 3.6 47 5.1 NNW 13 20 7 11 1018.0 1018.1 0.0
24/10:00pm 13.2 9.3 3.6 52 4.3 NNW 13 17 7 9 1018.1 1018.2 0.0
24/09:30pm 14.0 10.2 3.8 50 4.6 NNW 13 19 7 10 1018.2 1018.3 0.0
24/09:00pm 13.5 10.1 4.1 53 4.3 NNW 11 15 6 8 1018.4 1018.5 0.0
24/08:30pm 13.7 9.8 3.5 50 4.6 NNW 13 17 7 9 1018.3 1018.4 0.0
24/08:00pm 15.6 10.7 4.0 46 5.4 N 19 20 10 11 1018.2 1018.3 0.0
24/07:30pm 16.2 12.0 3.9 44 5.7 N 15 19 8 10 1018.0 1018.1 0.0
24/07:00pm 16.4 12.3 4.1 44 5.8 NNW 15 17 8 9 1017.9 1018.0 0.0
24/06:30pm 16.5 12.0 4.2 44 5.8 N 17 19 9 10 1017.7 1017.8 0.0
24/06:00pm 17.2 13.0 3.8 41 6.3 NNW 15 17 8 9 1017.5 1017.6 0.0
24/05:30pm 19.6 15.3 3.3 34 7.7 NNW 15 19 8 10 1017.2 1017.3 0.0
24/05:00pm 21.5 16.8 3.2 30 8.7 NNW 17 26 9 14 1017.2 1017.3 0.0
24/04:30pm 22.5 16.8 3.1 28 9.3 NW 22 28 12 15 1017.1 1017.2 0.0
24/04:00pm 23.1 16.8 3.6 28 9.5 NW 26 35 14 19 1017.0 1017.1 0.0
24/03:30pm 23.9 18.7 3.8 27 9.9 NW 20 30 11 16 1016.9 1017.0 0.0
24/03:00pm 23.8 18.2 3.2 26 10.0 NW 22 33 12 18 1017.0 1017.1 0.0
24/02:30pm 23.9 18.8 4.3 28 9.7 NNW 20 28 11 15 1017.3 1017.4 0.0
24/02:00pm 22.4 17.3 4.0 30 9.0 NNW 20 33 11 18 1017.4 1017.5 0.0
24/01:30pm 22.1 16.3 4.2 31 8.7 N 24 33 13 18 1017.7 1017.8 0.0
24/01:00pm 21.9 16.0 4.0 31 8.7 N 24 35 13 19 1018.5 1018.6 0.0
24/12:30pm 22.1 16.1 5.1 33 8.4 N 26 35 14 19 1019.4 1019.4 0.0
24/12:00pm 19.9 13.1 5.2 38 7.2 N 30 39 16 21 1020.0 1020.0 0.0
24/11:30am 19.6 12.8 7.0 44 6.4 N 32 41 17 22 1020.5 1020.5 0.0
24/11:00am 18.0 11.2 7.1 49 5.5 N 32 41 17 22 1021.1 1021.1 0.0
24/10:30am 16.9 11.0 7.3 53 4.8 NNE 28 39 15 21 1021.4 1021.4 0.0
24/10:00am 16.6 11.5 7.8 56 4.4 NNE 24 32 13 17 1021.7 1021.7 0.0
24/09:30am 14.6 10.4 8.1 65 3.2 NNE 20 28 11 15 1021.9 1021.9 0.0
24/09:00am 12.9 8.7 8.4 74 2.2 NE 20 28 11 15 1021.5 1021.5 0.0
24/08:30am 11.5 7.9 8.4 81 1.5 NNE 17 22 9 12 1021.2 1021.2 0.0
24/08:00am 9.5 6.5 7.8 89 0.8 NE 13 19 7 10 1021.0 1021.0 0.0
24/07:30am 7.6 4.3 6.5 93 0.5 NE 13 15 7 8 1021.1 1021.1 0.0
24/07:00am 7.8 4.2 6.6 92 0.6 NE 15 19 8 10 1020.8 1020.8 0.0
24/06:30am 8.3 5.2 7.1 92 0.6 NNE 13 17 7 9 1020.6 1020.6 0.0
24/06:00am 7.4 3.7 6.5 94 0.4 NE 15 17 8 9 1020.4 1020.4 0.0
24/05:30am 6.4 3.7 5.5 94 0.4 NE 9 11 5 6 1020.5 1020.5 0.0
24/05:00am 6.2 3.0 5.3 94 0.4 NE 11 13 6 7 1020.4 1020.4 0.0
24/04:30am 6.0 2.4 5.0 93 0.4 NE 13 15 7 8 1020.4 1020.4 0.0
24/04:00am 6.9 3.9 6.0 94 0.4 NE 11 13 6 7 1020.6 1020.6 0.0
24/03:30am 6.1 2.5 4.9 92 0.5 NE 13 17 7 9 1020.9 1020.9 0.0
24/03:00am 6.2 3.4 5.2 93 0.4 NE 9 11 5 6 1021.0 1021.0 0.0
24/02:30am 6.1 3.3 5.1 93 0.4 NE 9 13 5 7 1021.1 1021.1 0.0
24/02:00am 6.0 3.5 4.8 92 0.5 NE 7 7 4 4 1021.4 1021.4 0.0
24/01:30am 6.3 4.8 5.1 92 0.5 NNE 2 7 1 4 1021.5 1021.5 0.0
24/01:00am 6.4 4.0 5.2 92 0.5 NE 7 9 4 5 1021.5 1021.5 0.0
24/12:30am 6.3 4.1 5.1 92 0.5 NE 6 7 3 4 1021.7 1021.7 0.0
24/12:00am 6.3 4.8 5.1 92 0.5 N 2 6 1 3 1021.8 1021.8 0.0
 
Date/Time
CST
Temp
°C
App
Temp
°C
Dew
Point
°C
Rel
Hum
%
Delta-T
°C
Wind Press
QNH
hPa
Press
MSL
hPa
Rain since
9am
mm
Dir  Spd
km/h
Gust
km/h
Spd
kts
Gust
kts
23/11:30pm 7.3 4.6 5.8 90 0.7 ENE 9 15 5 8 1021.7 1021.7 0.0
23/11:00pm 8.2 7.0 6.5 89 0.8 N 2 6 1 3 1022.0 1022.0 0.0
23/10:30pm 8.3 5.5 7.1 92 0.6 NNW 11 13 6 7 1022.1 1022.1 0.0
23/10:00pm 6.3 3.8 4.5 88 0.8 N 7 7 4 4 1022.1 1022.1 0.0
23/09:30pm 6.0 3.3 3.7 85 1.0 NNW 7 7 4 4 1021.9 1021.9 0.0
23/09:00pm 6.8 4.4 4.5 85 1.0 NNW 6 9 3 5 1021.7 1021.7 0.0
23/08:30pm 6.9 5.2 4.0 82 1.2 NNW 2 6 1 3 1021.3 1021.3 0.0
23/08:00pm 7.8 6.1 4.0 77 1.6 N 2 7 1 4 1021.1 1021.1 0.0
23/07:30pm 9.8 8.7 6.7 81 1.5 W 2 6 1 3 1020.9 1020.9 0.0
23/07:00pm 9.4 6.8 5.9 79 1.6 WSW 9 9 5 5 1020.9 1020.9 0.0
23/06:30pm 11.6 9.1 6.5 71 2.4 SW 9 9 5 5 1020.4 1020.4 0.0
23/06:00pm 13.0 9.8 7.0 67 2.9 SW 13 15 7 8 1020.0 1020.0 0.0
23/05:30pm 15.3 11.8 7.3 59 4.0 SSW 15 20 8 11 1019.7 1019.7 0.0
23/05:00pm 16.8 12.5 7.7 55 4.6 SSW 20 24 11 13 1019.4 1019.4 0.0
23/04:30pm 18.0 13.4 6.5 47 5.7 SW 20 30 11 16 1019.2 1019.2 0.0
23/04:00pm 19.0 14.1 5.1 40 6.8 W 20 26 11 14 1019.0 1019.1 0.0
23/03:30pm 19.5 13.8 4.8 38 7.1 W 24 35 13 19 1019.2 1019.2 0.0
23/03:00pm 18.0 12.6 6.2 46 5.8 WSW 24 32 13 17 1019.3 1019.3 0.0
23/02:30pm 20.0 14.6 6.4 41 6.8 W 24 35 13 19 1019.4 1019.4 0.0

Other Formats:

Comma delimited format used in spreadsheet applications
http://www.bom.gov.au/fwo/IDS60801/IDS60801.95654.axf

JavaScript Object Notation format (JSON) in row-major order
http://www.bom.gov.au/fwo/IDS60801/IDS60801.95654.json